Time;durP1;ratioP1;P1;durP2;ratioP2;P2;SDS_P1;SDS_P2;PMS_P1;PMS_P2;Temp;Humidity;BMP_temperature;BMP_pressure;BME280_temperature;BME280_humidity;BME280_pressure;Samples;Min_cycle;Max_cycle;Signal;HPM_P1;HPM_P2
2023/07/12 00:01:14;;;;;;;2.10;1.50;;;;;;;24.23;52.40;101475.16;106721;1266;25343;-48
2023/07/12 00:03:41;;;;;;;2.90;1.50;;;;;;;24.23;52.51;101477.63;106775;1267;25509;-49
2023/07/12 00:06:12;;;;;;;3.10;1.50;;;;;;;24.25;52.67;101479.77;106388;1272;25332;-49
2023/07/12 00:08:42;;;;;;;1.70;1.60;;;;;;;24.24;53.53;101486.77;106550;1272;23269;-49
2023/07/12 00:11:15;;;;;;;5.20;2.40;;;;;;;24.20;54.05;101487.59;106208;1273;25401;-48
2023/07/12 00:13:42;;;;;;;3.10;2.00;;;;;;;24.15;54.60;101486.14;106641;1268;22519;-48
2023/07/12 00:16:23;;;;;;;2.30;1.60;;;;;;;24.10;54.92;101482.25;106734;1260;25484;-49
2023/07/12 00:18:51;;;;;;;3.60;2.30;;;;;;;24.05;55.02;101481.51;106354;1265;25593;-48
2023/07/12 00:21:24;;;;;;;2.40;1.80;;;;;;;24.02;55.07;101484.69;106532;1263;25369;-48
2023/07/12 00:23:55;;;;;;;3.60;1.90;;;;;;;24.00;54.95;101486.09;106966;1260;25459;-48
2023/07/12 00:26:30;;;;;;;5.70;2.40;;;;;;;23.99;54.67;101488.27;107054;1250;25369;-48
2023/07/12 00:28:58;;;;;;;6.90;2.10;;;;;;;23.98;54.66;101491.34;107197;1260;22648;-48
2023/07/12 00:31:25;;;;;;;2.50;2.00;;;;;;;23.97;54.84;101494.41;107082;1260;25353;-48
2023/07/12 00:33:53;;;;;;;3.80;2.10;;;;;;;23.96;55.18;101493.61;106697;1267;25404;-49
2023/07/12 00:36:25;;;;;;;2.80;2.10;;;;;;;23.93;55.39;101498.38;106862;1266;25325;-48
2023/07/12 00:38:52;;;;;;;2.60;2.40;;;;;;;23.92;55.32;101498.30;106897;1261;25291;-50
2023/07/12 00:41:40;;;;;;;3.50;1.90;;;;;;;23.89;55.15;101499.60;107122;1251;22685;-49
2023/07/12 00:44:13;;;;;;;2.50;2.00;;;;;;;23.86;55.22;101502.80;107179;1256;25336;-50
2023/07/12 00:46:42;;;;;;;4.50;2.40;;;;;;;23.83;55.44;101500.47;107035;1260;25379;-50
2023/07/12 00:49:09;;;;;;;3.90;2.20;;;;;;;23.83;55.51;101497.50;107153;1254;25328;-50
2023/07/12 00:51:53;;;;;;;3.20;2.10;;;;;;;23.82;55.39;101501.96;107007;1263;22752;-50
2023/07/12 00:54:23;;;;;;;3.60;2.50;;;;;;;23.81;55.56;101507.71;107068;1263;23862;-50
2023/07/12 00:56:50;;;;;;;3.60;2.30;;;;;;;23.78;55.53;101503.84;107111;1257;22706;-50
2023/07/12 00:59:28;;;;;;;2.30;2.10;;;;;;;23.75;55.12;101502.42;107079;1250;25503;-50
2023/07/12 01:01:59;;;;;;;4.20;2.30;;;;;;;23.74;55.02;101503.02;106852;1259;25344;-50
2023/07/12 01:04:32;;;;;;;4.20;2.40;;;;;;;23.73;55.19;101503.63;107164;1260;22513;-50
2023/07/12 01:06:59;;;;;;;3.30;2.00;;;;;;;23.72;54.91;101503.34;106860;1262;22767;-49
2023/07/12 01:09:26;;;;;;;2.70;2.10;;;;;;;23.71;54.60;101503.42;106786;1255;25474;-50
2023/07/12 01:11:53;;;;;;;2.40;2.20;;;;;;;23.69;54.27;101506.36;106896;1260;25356;-50
2023/07/12 01:14:20;;;;;;;4.00;2.10;;;;;;;23.68;54.10;101504.52;107051;1263;25353;-50
2023/07/12 01:16:51;;;;;;;3.60;2.30;;;;;;;23.67;53.88;101500.84;106849;1267;25318;-50
2023/07/12 01:19:18;;;;;;;2.30;2.10;;;;;;;23.66;53.97;101509.61;107124;1263;22496;-50
2023/07/12 01:21:47;;;;;;;2.20;2.00;;;;;;;23.64;53.93;101514.17;107156;1250;22540;-50
2023/07/12 01:24:14;;;;;;;2.10;1.90;;;;;;;23.61;54.01;101512.74;106842;1271;25347;-47
2023/07/12 01:26:46;;;;;;;2.30;2.10;;;;;;;23.58;54.27;101514.55;107160;1251;25403;-49
2023/07/12 01:29:14;;;;;;;3.90;1.80;;;;;;;23.52;54.46;101518.99;107033;1263;22512;-47
2023/07/12 01:31:42;;;;;;;4.80;2.40;;;;;;;23.48;54.62;101519.61;107086;1257;25322;-50
2023/07/12 01:34:09;;;;;;;3.80;1.80;;;;;;;23.44;54.38;101512.95;107110;1263;25439;-50
2023/07/12 01:36:36;;;;;;;2.00;1.70;;;;;;;23.40;53.93;101508.25;106407;1266;1003669;-50
2023/07/12 01:39:04;;;;;;;2.20;1.60;;;;;;;23.38;53.40;101507.64;107179;1254;25404;-47
2023/07/12 01:41:32;;;;;;;2.40;1.70;;;;;;;23.36;52.94;101510.12;107183;1263;22523;-50
2023/07/12 01:43:59;;;;;;;1.80;1.60;;;;;;;23.33;52.81;101510.81;107120;1263;25417;-49
2023/07/12 01:46:26;;;;;;;1.70;1.60;;;;;;;23.32;52.82;101503.29;107084;1253;24333;-49
2023/07/12 01:48:53;;;;;;;1.80;1.70;;;;;;;23.33;52.97;101503.06;106877;1272;25468;-49
2023/07/12 01:51:20;;;;;;;2.00;1.80;;;;;;;23.31;53.06;101502.06;107191;1260;25325;-49
2023/07/12 01:53:49;;;;;;;2.10;1.90;;;;;;;23.30;53.29;101504.80;107204;1254;23087;-49
2023/07/12 01:56:17;;;;;;;2.00;1.80;;;;;;;23.29;53.59;101507.33;106825;1269;25343;-49
2023/07/12 01:58:44;;;;;;;1.90;1.70;;;;;;;23.28;53.66;101508.13;107013;1256;25365;-49
2023/07/12 02:01:11;;;;;;;2.20;2.00;;;;;;;23.26;53.63;101506.50;107160;1254;25427;-49
2023/07/12 02:03:38;;;;;;;1.80;1.60;;;;;;;23.23;53.33;101501.00;107116;1251;23896;-49
2023/07/12 02:06:05;;;;;;;2.40;1.90;;;;;;;23.20;53.25;101502.80;107043;1266;25445;-49
2023/07/12 02:08:33;;;;;;;2.10;1.90;;;;;;;23.17;53.17;101503.70;107078;1251;22834;-49
2023/07/12 02:11:00;;;;;;;1.90;1.60;;;;;;;23.15;53.29;101503.79;107054;1263;25327;-49
2023/07/12 02:13:27;;;;;;;2.00;1.70;;;;;;;23.14;53.19;101502.08;107049;1257;25474;-48
2023/07/12 02:15:54;;;;;;;2.20;1.70;;;;;;;23.15;53.01;101501.17;107102;1254;25446;-49
2023/07/12 02:18:22;;;;;;;1.80;1.60;;;;;;;23.15;52.96;101502.39;107149;1263;25440;-49
2023/07/12 02:20:49;;;;;;;3.90;1.60;;;;;;;23.16;52.98;101508.00;106418;1257;1003593;-49
2023/07/12 02:23:17;;;;;;;3.70;1.80;;;;;;;23.16;52.87;101510.10;107119;1254;25499;-48
2023/07/12 02:25:44;;;;;;;2.10;1.90;;;;;;;23.16;52.46;101509.93;106914;1269;26066;-48
2023/07/12 02:28:11;;;;;;;5.30;1.90;;;;;;;23.16;52.60;101509.09;107128;1265;25405;-48
2023/07/12 02:30:42;;;;;;;2.20;2.00;;;;;;;23.14;53.17;101516.45;107120;1267;25302;-49
2023/07/12 02:33:09;;;;;;;6.30;2.20;;;;;;;23.11;53.60;101516.41;107049;1256;24192;-49
2023/07/12 02:35:38;;;;;;;3.20;2.30;;;;;;;23.08;53.00;101515.73;107038;1254;25346;-48
2023/07/12 02:38:05;;;;;;;3.90;1.90;;;;;;;23.05;53.05;101523.16;107234;1260;22523;-49
2023/07/12 02:40:32;;;;;;;2.50;2.10;;;;;;;23.02;53.14;101523.35;106879;1260;25427;-49
2023/07/12 02:42:59;;;;;;;2.70;1.80;;;;;;;22.97;53.37;101525.77;106963;1259;25423;-48
2023/07/12 02:45:26;;;;;;;2.00;1.80;;;;;;;22.95;53.29;101522.05;107220;1250;25366;-50
2023/07/12 02:47:53;;;;;;;4.70;2.40;;;;;;;22.94;53.13;101515.55;107203;1256;25356;-50
2023/07/12 02:50:21;;;;;;;2.40;2.00;;;;;;;22.94;53.29;101510.40;106831;1257;25319;-50
2023/07/12 02:52:48;;;;;;;2.30;2.00;;;;;;;22.95;53.49;101502.76;107085;1260;25394;-49
2023/07/12 02:55:15;;;;;;;1.70;1.50;;;;;;;22.96;53.30;101507.63;107116;1263;25344;-50
2023/07/12 02:57:43;;;;;;;4.10;2.00;;;;;;;22.97;53.16;101513.61;107098;1260;25318;-49
2023/07/12 03:00:11;;;;;;;2.90;1.90;;;;;;;22.97;53.01;101519.44;107115;1254;25328;-49
2023/07/12 03:02:39;;;;;;;3.00;1.90;;;;;;;22.97;52.96;101520.34;106881;1253;25204;-48
2023/07/12 03:05:07;;;;;;;4.30;2.10;;;;;;;22.96;52.68;101523.55;107127;1254;25465;-50
2023/07/12 03:07:35;;;;;;;2.20;1.90;;;;;;;22.97;52.96;101529.85;107117;1266;26478;-48
2023/07/12 03:10:03;;;;;;;2.60;2.20;;;;;;;22.99;53.65;101530.48;107196;1259;25439;-48
2023/07/12 03:12:30;;;;;;;3.40;2.20;;;;;;;22.98;53.70;101530.55;106943;1256;22606;-48
2023/07/12 03:14:57;;;;;;;2.60;2.10;;;;;;;22.96;53.64;101532.05;107168;1254;25430;-48
2023/07/12 03:17:24;;;;;;;2.30;1.90;;;;;;;22.96;53.67;101534.00;107025;1266;25350;-48
2023/07/12 03:19:52;;;;;;;3.80;1.90;;;;;;;22.94;53.78;101528.98;107068;1254;23385;-48
2023/07/12 03:22:20;;;;;;;2.30;1.90;;;;;;;22.94;53.93;101531.09;107057;1260;22576;-48
2023/07/12 03:24:47;;;;;;;1.80;1.70;;;;;;;22.95;53.97;101535.32;107063;1256;25328;-48
2023/07/12 03:27:14;;;;;;;1.80;1.60;;;;;;;22.97;53.92;101535.56;107120;1251;25325;-48
2023/07/12 03:29:41;;;;;;;1.70;1.60;;;;;;;22.98;53.91;101538.48;106892;1266;25478;-48
2023/07/12 03:32:08;;;;;;;2.50;1.60;;;;;;;23.00;53.63;101541.59;107002;1263;25356;-48
2023/07/12 03:34:36;;;;;;;1.60;1.50;;;;;;;23.02;53.36;101543.90;106887;1263;25477;-48
2023/07/12 03:37:03;;;;;;;1.80;1.70;;;;;;;23.06;53.25;101543.86;106757;1260;25350;-47
2023/07/12 03:39:30;;;;;;;1.80;1.70;;;;;;;23.10;52.78;101548.36;106839;1257;25349;-48
2023/07/12 03:41:58;;;;;;;3.10;2.00;;;;;;;23.16;52.35;101554.19;107095;1254;25464;-48
2023/07/12 03:44:25;;;;;;;3.20;2.00;;;;;;;23.26;52.34;101560.45;107164;1263;25356;-48
2023/07/12 03:46:52;;;;;;;2.30;1.70;;;;;;;23.45;52.26;101562.63;107180;1256;24235;-48
2023/07/12 03:49:19;;;;;;;2.70;1.80;;;;;;;23.74;51.46;101566.45;107096;1255;25423;-48
2023/07/12 03:51:46;;;;;;;2.20;2.00;;;;;;;24.10;51.08;101571.96;107080;1257;25477;-48
2023/07/12 03:54:14;;;;;;;3.60;1.90;;;;;;;24.50;50.23;101577.61;107127;1251;25353;-48
2023/07/12 03:56:41;;;;;;;2.80;2.10;;;;;;;24.90;48.64;101583.98;106917;1259;25780;-48
2023/07/12 03:59:08;;;;;;;3.00;1.60;;;;;;;25.28;47.81;101577.55;107097;1254;25425;-48
2023/07/12 04:01:36;;;;;;;2.90;1.80;;;;;;;25.68;47.45;101580.19;107148;1256;22527;-48
2023/07/12 04:04:03;;;;;;;2.00;1.70;;;;;;;25.98;46.94;101586.39;106843;1256;25419;-48
2023/07/12 04:06:32;;;;;;;2.70;1.80;;;;;;;26.10;46.75;101591.64;107079;1254;23393;-48
2023/07/12 04:09:01;;;;;;;2.60;1.70;;;;;;;26.09;46.55;101591.84;106794;1260;25327;-48
2023/07/12 04:11:30;;;;;;;1.90;1.70;;;;;;;26.00;46.65;101595.88;107098;1263;25337;-48
2023/07/12 04:13:59;;;;;;;1.70;1.60;;;;;;;25.84;47.16;101590.08;107108;1254;25325;-48
2023/07/12 04:16:26;;;;;;;2.30;2.10;;;;;;;25.67;47.26;101591.65;107032;1264;25440;-48
2023/07/12 04:18:53;;;;;;;2.20;2.00;;;;;;;25.48;48.12;101591.95;107125;1257;25318;-48
2023/07/12 04:21:21;;;;;;;2.60;2.00;;;;;;;25.26;48.97;101597.23;107028;1257;25477;-48
2023/07/12 04:23:49;;;;;;;2.10;1.90;;;;;;;25.06;49.71;101606.42;106967;1263;25334;-49
2023/07/12 04:26:17;;;;;;;2.40;2.10;;;;;;;24.86;50.03;101610.84;106953;1254;24249;-50
2023/07/12 04:28:50;;;;;;;3.00;2.30;;;;;;;24.70;50.64;101614.08;106949;1260;25390;-49
2023/07/12 04:31:18;;;;;;;2.80;2.00;;;;;;;24.56;51.33;101617.30;107131;1255;25352;-50
2023/07/12 04:33:46;;;;;;;4.00;2.30;;;;;;;24.44;51.69;101619.54;107064;1254;25340;-49
2023/07/12 04:36:15;;;;;;;2.40;2.10;;;;;;;24.32;52.22;101619.09;106953;1256;22531;-48
2023/07/12 04:38:42;;;;;;;2.10;1.90;;;;;;;24.23;52.52;101621.61;107090;1251;22530;-49
2023/07/12 04:41:10;;;;;;;2.50;2.10;;;;;;;24.15;52.80;101619.27;107182;1261;22524;-49
2023/07/12 04:43:37;;;;;;;2.80;2.20;;;;;;;24.11;52.99;101622.60;106875;1266;25405;-48
2023/07/12 04:46:05;;;;;;;3.20;2.20;;;;;;;24.05;52.82;101624.18;107128;1263;25328;-48
2023/07/12 04:48:33;;;;;;;3.80;2.30;;;;;;;24.00;52.95;101629.61;107174;1255;25404;-48
2023/07/12 04:51:00;;;;;;;3.40;2.20;;;;;;;23.96;53.15;101627.27;107075;1260;25236;-48
2023/07/12 04:53:28;;;;;;;2.80;2.60;;;;;;;23.92;53.37;101624.10;107210;1257;25552;-48
2023/07/12 04:55:55;;;;;;;3.90;2.30;;;;;;;23.91;53.94;101631.09;107155;1254;25356;-48
2023/07/12 04:58:22;;;;;;;2.90;2.60;;;;;;;23.90;54.43;101634.36;107169;1252;25318;-49
2023/07/12 05:00:50;;;;;;;2.50;2.20;;;;;;;23.89;54.48;101633.19;107071;1263;25325;-49
2023/07/12 05:03:17;;;;;;;4.70;2.20;;;;;;;23.89;54.71;101631.44;107131;1260;26640;-48
2023/07/12 05:05:45;;;;;;;2.90;2.60;;;;;;;23.91;54.75;101637.88;107100;1266;25309;-49
2023/07/12 05:08:12;;;;;;;3.60;2.70;;;;;;;23.94;54.70;101640.47;107190;1263;24060;-48
2023/07/12 05:10:41;;;;;;;2.50;2.30;;;;;;;23.99;54.68;101649.38;107094;1254;25512;-49
2023/07/12 05:13:08;;;;;;;3.30;2.50;;;;;;;24.09;54.47;101648.41;107182;1264;25352;-49
2023/07/12 05:15:36;;;;;;;3.90;2.50;;;;;;;24.23;54.14;101652.29;106972;1267;25427;-49
2023/07/12 05:18:03;;;;;;;2.40;2.20;;;;;;;24.41;53.75;101652.72;107144;1257;25366;-48
2023/07/12 05:20:31;;;;;;;3.00;2.50;;;;;;;24.64;53.02;101654.77;107143;1251;25445;-48
2023/07/12 05:22:58;;;;;;;3.10;2.20;;;;;;;24.91;52.29;101657.01;106919;1260;25337;-48
2023/07/12 05:25:25;;;;;;;3.80;2.40;;;;;;;25.24;51.90;101657.21;107100;1257;25349;-49
2023/07/12 05:27:52;;;;;;;3.40;2.50;;;;;;;25.54;50.82;101657.83;107132;1254;25381;-49
2023/07/12 11:42:20;;;;;;;1.70;1.50;;;;;;;28.56;35.96;101596.56;105116;1294;25416;-48
2023/07/12 11:45:05;;;;;;;1.70;1.60;;;;;;;28.61;35.02;101600.56;106200;1271;24211;-48
2023/07/12 11:47:33;;;;;;;1.50;1.40;;;;;;;28.63;35.01;101608.05;106280;1278;22549;-48
2023/07/12 11:50:04;;;;;;;3.30;1.60;;;;;;;28.66;35.25;101615.33;106305;1267;25427;-48
2023/07/12 11:52:33;;;;;;;1.80;1.70;;;;;;;28.69;35.39;101616.14;106029;1279;24274;-48
2023/07/12 11:55:04;;;;;;;3.40;1.60;;;;;;;28.72;35.50;101615.15;106415;1274;24707;-48
2023/07/12 11:57:38;;;;;;;2.00;1.80;;;;;;;28.75;35.18;101614.20;106688;1263;25370;-48
2023/07/12 12:00:21;;;;;;;1.80;1.70;;;;;;;28.76;35.36;101610.33;106670;1269;23173;-48
2023/07/12 12:02:50;;;;;;;2.00;1.80;;;;;;;28.82;35.35;101611.98;106638;1262;25392;-48
2023/07/12 12:05:21;;;;;;;1.80;1.60;;;;;;;28.86;35.50;101608.42;106658;1264;22611;-48
2023/07/12 12:07:49;;;;;;;1.90;1.80;;;;;;;28.91;35.68;101602.84;106347;1266;22530;-48
2023/07/12 12:10:23;;;;;;;1.70;1.60;;;;;;;28.93;35.47;101604.27;106288;1276;25328;-48
2023/07/12 12:12:51;;;;;;;1.50;1.40;;;;;;;28.95;35.21;101605.54;106333;1275;25382;-48
2023/07/12 12:15:26;;;;;;;3.40;1.50;;;;;;;29.01;34.90;101611.27;106035;1267;23871;-48
2023/07/12 12:17:54;;;;;;;3.00;1.60;;;;;;;29.05;34.82;101610.39;106027;1279;25369;-48
2023/07/12 12:20:23;;;;;;;1.80;1.70;;;;;;;29.07;34.60;101610.80;106311;1269;24204;-48
2023/07/12 12:23:05;;;;;;;1.90;1.60;;;;;;;29.08;34.06;101611.54;106440;1266;25497;-48
2023/07/12 12:25:32;;;;;;;1.60;1.50;;;;;;;29.16;33.74;101618.97;106237;1270;25278;-48
2023/07/12 12:28:03;;;;;;;2.10;1.30;;;;;;;29.24;34.59;101616.66;106337;1269;25345;-48
2023/07/12 12:30:33;;;;;;;1.80;1.70;;;;;;;29.35;35.85;101610.14;106342;1263;25418;-48
2023/07/12 12:33:05;;;;;;;3.40;1.70;;;;;;;29.45;37.69;101604.61;106376;1269;25491;-48
2023/07/12 12:35:46;;;;;;;1.80;1.70;;;;;;;29.53;38.75;101612.64;106505;1266;25360;-48
2023/07/12 12:38:27;;;;;;;1.80;1.70;;;;;;;29.58;39.00;101615.55;106222;1269;22631;-47
2023/07/12 12:41:15;;;;;;;1.80;1.50;;;;;;;29.61;39.01;101617.23;106059;1278;22540;-47
2023/07/12 12:43:59;;;;;;;1.60;1.50;;;;;;;29.64;38.95;101610.72;106628;1271;25325;-47
2023/07/12 12:46:28;;;;;;;1.60;1.50;;;;;;;29.66;38.41;101613.25;106250;1275;22527;-47
2023/07/12 12:49:26;;;;;;;2.90;1.70;;;;;;;29.68;38.57;101615.55;106601;1262;25339;-47
2023/07/12 12:52:18;;;;;;;4.30;1.70;;;;;;;29.70;38.74;101615.54;106771;1260;24181;-48
2023/07/12 12:54:48;;;;;;;1.70;1.60;;;;;;;29.73;38.99;101610.52;106251;1263;25398;-48
2023/07/12 12:57:25;;;;;;;2.10;1.80;;;;;;;29.74;39.14;101607.55;106304;1275;25353;-48
2023/07/12 12:59:56;;;;;;;2.20;1.90;;;;;;;29.74;39.45;101603.05;106289;1280;25328;-48
2023/07/12 13:02:26;;;;;;;1.80;1.70;;;;;;;29.74;39.38;101601.80;106270;1275;25371;-47
2023/07/12 13:05:14;;;;;;;3.10;1.70;;;;;;;29.73;39.54;101595.79;106281;1265;25347;-48
2023/07/12 13:07:54;;;;;;;2.20;1.90;;;;;;;29.82;39.39;101591.61;106249;1272;24381;-47
2023/07/12 13:10:43;;;;;;;1.90;1.60;;;;;;;29.90;38.64;101595.76;106295;1269;25324;-48
2023/07/12 13:13:17;;;;;;;2.20;1.90;;;;;;;29.90;38.64;101594.14;106337;1277;25384;-48
2023/07/12 13:15:47;;;;;;;3.00;1.70;;;;;;;29.89;38.54;101591.58;106453;1265;26533;-48
2023/07/12 13:18:17;;;;;;;2.60;1.70;;;;;;;29.88;38.47;101597.88;106280;1265;22540;-47
2023/07/12 13:21:04;;;;;;;2.10;1.60;;;;;;;29.88;38.76;101600.23;106298;1265;25353;-47
2023/07/12 13:23:35;;;;;;;5.20;1.70;;;;;;;29.87;38.64;101600.49;106245;1276;25445;-47
2023/07/12 13:26:11;;;;;;;1.70;1.60;;;;;;;29.85;38.38;101593.15;106024;1272;25460;-47
2023/07/12 13:28:38;;;;;;;2.00;1.80;;;;;;;29.84;38.30;101592.17;105930;1279;25452;-47
2023/07/12 13:31:05;;;;;;;1.60;1.50;;;;;;;29.83;38.68;101592.81;106352;1275;25425;-47
2023/07/12 13:33:33;;;;;;;1.40;1.30;;;;;;;29.82;38.40;101585.39;106646;1269;25485;-48
2023/07/12 13:36:01;;;;;;;2.10;1.90;;;;;;;29.80;38.33;101582.83;106713;1272;25328;-47
2023/07/12 13:38:32;;;;;;;2.40;1.90;;;;;;;29.79;38.31;101581.73;106497;1276;25412;-47
2023/07/12 13:41:02;;;;;;;1.70;1.50;;;;;;;29.67;38.53;101571.70;106834;1258;22611;-47
2023/07/12 13:43:32;;;;;;;2.40;1.80;;;;;;;29.61;38.77;101564.73;106791;1263;25380;-48
2023/07/12 13:46:06;;;;;;;1.60;1.50;;;;;;;29.58;38.72;101564.27;106490;1276;25325;-48
2023/07/12 13:48:36;;;;;;;2.20;1.60;;;;;;;29.57;39.05;101560.80;106729;1262;25328;-47
2023/07/12 13:51:03;;;;;;;2.10;1.90;;;;;;;29.55;39.47;101558.95;106811;1262;25325;-47
2023/07/12 13:53:32;;;;;;;2.10;1.90;;;;;;;29.54;39.60;101560.84;106815;1268;25324;-47
2023/07/12 13:55:59;;;;;;;2.20;1.60;;;;;;;29.51;39.36;101557.88;106821;1263;25354;-47
2023/07/12 13:58:27;;;;;;;2.00;1.80;;;;;;;29.49;39.38;101554.17;106801;1268;25336;-47
2023/07/12 14:00:59;;;;;;;1.50;1.40;;;;;;;29.44;39.38;101555.33;106759;1270;22525;-48
2023/07/12 14:03:29;;;;;;;1.80;1.70;;;;;;;29.37;39.33;101559.66;106740;1270;25446;-47
2023/07/12 14:06:01;;;;;;;3.50;2.50;;;;;;;29.41;39.60;101561.46;106767;1262;25339;-47
2023/07/12 14:08:28;;;;;;;2.10;1.90;;;;;;;29.40;40.05;101563.52;106694;1259;24246;-48
2023/07/12 14:10:59;;;;;;;1.70;1.50;;;;;;;29.34;40.37;101569.42;106740;1264;25325;-47
2023/07/12 14:13:26;;;;;;;1.90;1.70;;;;;;;29.32;40.30;101572.98;106511;1270;25311;-48
2023/07/12 14:15:53;;;;;;;1.90;1.80;;;;;;;29.31;40.22;101573.44;106763;1260;25336;-47
2023/07/12 14:18:20;;;;;;;2.10;1.80;;;;;;;29.31;39.93;101570.98;106913;1259;22625;-48
2023/07/12 14:20:50;;;;;;;2.00;1.60;;;;;;;29.31;39.69;101569.72;106758;1274;25325;-47
2023/07/12 14:23:21;;;;;;;1.90;1.70;;;;;;;29.28;39.64;101570.52;106878;1269;25336;-47
2023/07/12 14:25:48;;;;;;;2.40;1.80;;;;;;;29.26;39.45;101577.17;106749;1262;24343;-47
2023/07/12 14:28:15;;;;;;;2.30;1.50;;;;;;;29.23;39.86;101576.30;106754;1273;25469;-48
2023/07/12 14:30:42;;;;;;;2.10;1.60;;;;;;;29.18;40.14;101576.05;106758;1272;25364;-47
2023/07/12 14:33:30;;;;;;;2.00;1.70;;;;;;;29.14;39.89;101578.91;106446;1275;25343;-47
2023/07/12 14:35:58;;;;;;;1.70;1.60;;;;;;;29.12;39.33;101586.59;106761;1266;25392;-47
2023/07/12 14:38:25;;;;;;;1.80;1.70;;;;;;;29.09;39.13;101582.91;106730;1266;25332;-47
2023/07/12 14:40:53;;;;;;;2.00;1.70;;;;;;;29.07;39.49;101583.27;106444;1278;25329;-47
2023/07/12 14:43:21;;;;;;;2.10;1.80;;;;;;;29.04;39.39;101581.92;106756;1266;25321;-47
2023/07/12 14:45:49;;;;;;;1.80;1.70;;;;;;;28.99;40.07;101578.23;106439;1267;25322;-47
2023/07/12 14:48:16;;;;;;;2.10;1.90;;;;;;;28.96;40.57;101574.83;106841;1270;25335;-47
2023/07/12 14:50:43;;;;;;;2.00;1.80;;;;;;;28.95;40.81;101573.11;106737;1270;25325;-47
2023/07/12 14:53:12;;;;;;;2.70;2.50;;;;;;;28.91;41.25;101564.23;106380;1265;25485;-50
2023/07/12 14:55:40;;;;;;;2.90;1.90;;;;;;;28.88;41.64;101567.30;106641;1262;22528;-50
2023/07/12 14:58:14;;;;;;;1.90;1.80;;;;;;;28.92;41.31;101559.67;106382;1269;24211;-50
2023/07/12 15:00:48;;;;;;;2.10;1.90;;;;;;;28.91;41.26;101559.52;106495;1270;25630;-48
2023/07/12 15:03:20;;;;;;;1.80;1.60;;;;;;;28.93;41.40;101567.74;106803;1266;24259;-50
2023/07/12 15:05:48;;;;;;;3.50;1.90;;;;;;;28.89;41.52;101570.96;106774;1268;22527;-47
2023/07/12 15:08:28;;;;;;;2.20;1.70;;;;;;;28.87;41.81;101567.60;106767;1265;22531;-47
2023/07/12 15:10:55;;;;;;;2.00;1.80;;;;;;;28.86;41.88;101566.46;106708;1272;22529;-48
2023/07/12 15:13:24;;;;;;;2.10;2.00;;;;;;;28.81;42.14;101561.86;106658;1262;25389;-48
2023/07/12 15:15:51;;;;;;;1.80;1.70;;;;;;;28.77;42.08;101560.45;107050;1261;24199;-48
2023/07/12 15:18:20;;;;;;;2.10;1.90;;;;;;;28.73;42.43;101556.30;106854;1270;25519;-48
2023/07/12 15:20:53;;;;;;;2.70;1.80;;;;;;;28.69;42.69;101557.42;107086;1263;25337;-48
2023/07/12 15:23:31;;;;;;;3.30;2.00;;;;;;;28.65;42.97;101558.48;107198;1259;25347;-48
2023/07/12 15:25:59;;;;;;;2.50;2.00;;;;;;;28.61;43.04;101558.41;106879;1259;25347;-48
2023/07/12 15:28:26;;;;;;;2.10;1.70;;;;;;;28.57;43.41;101557.86;107041;1265;25508;-48
2023/07/12 15:30:53;;;;;;;2.90;1.90;;;;;;;28.55;43.77;101558.75;106833;1268;25373;-48
2023/07/12 15:33:21;;;;;;;1.80;1.70;;;;;;;28.53;44.16;101554.63;106771;1265;23393;-48
2023/07/12 15:35:49;;;;;;;2.50;2.30;;;;;;;28.50;44.17;101554.84;107035;1264;25332;-48
2023/07/12 15:38:16;;;;;;;2.30;2.10;;;;;;;28.48;44.27;101560.27;107198;1270;24208;-49
2023/07/12 15:40:46;;;;;;;2.40;1.70;;;;;;;28.45;44.32;101554.07;106744;1265;25321;-49
2023/07/12 15:43:18;;;;;;;4.70;2.00;;;;;;;28.43;44.43;101555.13;106978;1267;25347;-48
2023/07/12 15:45:45;;;;;;;1.90;1.80;;;;;;;28.41;44.79;101556.23;106454;1263;25360;-48
2023/07/12 15:48:20;;;;;;;2.00;1.80;;;;;;;28.39;44.80;101549.77;106777;1266;25406;-48
2023/07/12 15:50:50;;;;;;;2.20;1.90;;;;;;;28.37;44.88;101552.27;106708;1259;25481;-48
2023/07/12 15:53:20;;;;;;;2.30;1.80;;;;;;;28.34;45.07;101558.79;106989;1256;25424;-48
2023/07/12 15:55:48;;;;;;;2.10;1.90;;;;;;;28.32;45.16;101557.14;106855;1266;24602;-48
2023/07/12 15:58:29;;;;;;;2.80;2.20;;;;;;;28.31;45.44;101557.59;107263;1271;25340;-49
2023/07/12 16:01:00;;;;;;;1.60;1.50;;;;;;;28.28;45.85;101554.59;107076;1266;25450;-48
2023/07/12 16:03:30;;;;;;;3.00;2.10;;;;;;;28.25;45.85;101545.08;106616;1263;25221;-48
2023/07/12 16:05:58;;;;;;;2.90;1.90;;;;;;;28.14;46.33;101546.88;106841;1260;22527;-48
2023/07/12 16:08:26;;;;;;;1.60;1.50;;;;;;;28.14;46.35;101547.06;106778;1274;25477;-48
2023/07/12 16:10:54;;;;;;;1.80;1.70;;;;;;;28.09;46.22;101546.36;107098;1258;25313;-48
2023/07/12 16:13:24;;;;;;;3.00;2.10;;;;;;;28.05;46.74;101549.23;107045;1263;25520;-48
2023/07/12 16:15:51;;;;;;;2.20;2.00;;;;;;;27.99;46.81;101544.02;106834;1271;22529;-48
2023/07/12 16:18:22;;;;;;;3.80;2.00;;;;;;;27.96;46.99;101531.44;107132;1258;25322;-48
2023/07/12 16:20:51;;;;;;;2.50;1.80;;;;;;;27.93;47.11;101527.05;106897;1270;22524;-48
2023/07/12 16:23:18;;;;;;;2.20;2.00;;;;;;;27.89;47.26;101524.47;107073;1265;25345;-48
2023/07/12 16:25:46;;;;;;;1.80;1.70;;;;;;;27.84;47.32;101526.36;107068;1264;25434;-48
2023/07/12 16:28:14;;;;;;;2.30;1.90;;;;;;;27.82;47.52;101525.64;106778;1271;25321;-48
2023/07/12 16:30:41;;;;;;;2.20;2.00;;;;;;;27.72;48.07;101525.26;107055;1257;25321;-48
2023/07/12 16:33:18;;;;;;;2.50;2.20;;;;;;;27.67;48.42;101527.60;107103;1267;25517;-48
2023/07/12 16:35:45;;;;;;;1.90;1.80;;;;;;;27.63;48.70;101527.01;107155;1257;25360;-48
2023/07/12 16:38:20;;;;;;;2.10;1.90;;;;;;;27.66;48.67;101523.20;107049;1260;25405;-48
2023/07/12 16:40:55;;;;;;;2.20;1.90;;;;;;;27.65;48.89;101528.08;107093;1267;22526;-48
2023/07/12 16:43:22;;;;;;;2.00;1.90;;;;;;;27.64;48.91;101531.02;107117;1261;22997;-48
2023/07/12 16:45:49;;;;;;;2.30;2.00;;;;;;;27.63;48.99;101525.25;106879;1273;25327;-48
2023/07/12 16:48:17;;;;;;;2.90;1.90;;;;;;;27.63;49.35;101525.98;107108;1254;25357;-48
2023/07/12 16:50:45;;;;;;;1.90;1.70;;;;;;;27.62;49.71;101526.56;107084;1258;25332;-48
2023/07/12 16:53:14;;;;;;;2.80;2.40;;;;;;;27.60;49.94;101531.91;107039;1254;25350;-48
2023/07/12 16:55:42;;;;;;;2.80;1.90;;;;;;;27.56;49.97;101531.30;107163;1256;22565;-48
2023/07/12 16:58:19;;;;;;;2.10;1.80;;;;;;;27.53;50.08;101531.05;107124;1265;25360;-48
2023/07/12 17:00:48;;;;;;;2.50;1.80;;;;;;;27.48;50.37;101531.48;106892;1264;25312;-49
2023/07/12 17:03:18;;;;;;;2.20;1.90;;;;;;;27.43;50.42;101529.88;107238;1263;22650;-48
2023/07/12 17:05:45;;;;;;;1.70;1.60;;;;;;;27.38;50.36;101528.61;107128;1254;25370;-48
2023/07/12 17:08:15;;;;;;;2.30;2.10;;;;;;;27.38;50.50;101526.46;106976;1266;25406;-48
2023/07/12 17:10:42;;;;;;;2.40;2.10;;;;;;;27.36;50.37;101526.50;107228;1256;25493;-49
2023/07/12 17:13:12;;;;;;;4.00;2.10;;;;;;;27.32;50.58;101527.17;107067;1257;22799;-48
2023/07/12 17:15:41;;;;;;;2.20;1.90;;;;;;;27.30;50.78;101528.88;106823;1265;25332;-48
2023/07/12 17:18:12;;;;;;;2.30;2.00;;;;;;;27.28;50.73;101523.21;107131;1251;24237;-48
2023/07/12 17:20:41;;;;;;;2.40;2.20;;;;;;;27.26;50.72;101527.14;106816;1260;25463;-49
2023/07/12 17:23:19;;;;;;;4.40;2.60;;;;;;;27.23;50.79;101530.37;107216;1257;24245;-48
2023/07/12 17:25:47;;;;;;;3.80;2.20;;;;;;;27.19;51.05;101525.34;107247;1256;25398;-49
2023/07/12 17:28:25;;;;;;;7.00;2.60;;;;;;;27.13;51.48;101521.07;107168;1255;22992;-49
2023/07/12 17:30:59;;;;;;;3.20;2.80;;;;;;;27.09;51.47;101518.69;107058;1266;25388;-48
2023/07/12 17:33:27;;;;;;;3.30;3.00;;;;;;;27.05;51.78;101518.41;107085;1261;25332;-49
2023/07/12 17:35:55;;;;;;;3.30;2.80;;;;;;;27.03;52.00;101523.80;106922;1258;25485;-49
2023/07/12 17:38:23;;;;;;;3.70;3.20;;;;;;;27.00;52.35;101530.81;106788;1258;24380;-48
2023/07/12 17:40:52;;;;;;;3.50;2.90;;;;;;;26.98;52.53;101521.19;106773;1261;25471;-48